Alex Oliveira

Chefscout - Flamengo
3 Apr 2027
Samstag
Verarbeitung

Persönlichkeit

Anpassungsfähigkeit (12) Ehrgeiz (3) Kontroverse (18) Loyalität (18) Druck (12) Professionalität (3) Fairness (14) Temperament (2)

Profil

Trainerstil Demokratisch
Lizenz Kontinentale Pro
Entschlossenheit 9
Menschenführung 13
Motivation 14
Disziplin 12
Arbeitszufriedenheit
100%
Ermüdung
0%
Rolle Chefscout
Gehalt 60.4K p/W
Vertrag 14.03.2028

Leistung

Verhalten Gut
Trainingseffektivität
59%
Spielerentwicklung
30%
Verletzungsprävention
40%
Taktische Umsetzung
35%

Letzte Ereignisse

Spieler begutachtet jetzt
Spieler begutachtet jetzt
Nahm an einer Scouting-Besprechung teil jetzt
Empfahl ein Transferziel jetzt
Empfahl ein Transferziel jetzt
Empfahl ein Transferziel jetzt
Spieler begutachtet jetzt
Spieler begutachtet jetzt

Aktuell beobachtet

208
Spieler Verein Status Fähigkeit Vertrauen Beobachtet Zuletzt beobachtet Letzte Stimme
Luis Suárez Sporting CP Aktiv 154 / 146 40% 8 02.04.2027 -
Thiago Brentford Aktiv 147 / 143 40% 4 02.04.2027 -
Kai Havertz Arsenal Aktiv 158 / 147 40% 3 02.04.2027 -
Santiago Castro AS Roma Aktiv 149 / 163 40% 5 01.04.2027 -
Taty Castellanos West Ham United Aktiv 150 / 156 40% 4 01.04.2027 -
Victor Osimhen Galatasaray Aktiv 166 / 164 40% 8 31.03.2027 -
Ferran Torres Paris Saint-Germain Aktiv 164 / 155 40% 3 31.03.2027 -
Taiwo Awoniyi Coventry City Aktiv 142 / 122 40% 2 31.03.2027 -
Alexis Vega Toluca Aktiv 148 / 139 40% 14 30.03.2027 -
Exequiel Palacios Ipswich Town Aktiv 154 / 145 40% 8 29.03.2027 -
Francisco Moura Porto Aktiv 143 / 153 40% 4 29.03.2027 -
Tammy Abraham Aston Villa Aktiv 140 / 150 40% 1 29.03.2027 -
Juanlu Bournemouth Aktiv 149 / 165 40% 1 29.03.2027 -
Víctor Gómez Braga Aktiv 139 / 125 40% 8 28.03.2027 -
Jakub Kiwior Porto Aktiv 155 / 141 40% 5 28.03.2027 -
Gabriel Gudmundsson Leeds United Aktiv 138 / 129 40% 5 27.03.2027 -
Wesley Fofana Chelsea Aktiv 164 / 155 40% 2 27.03.2027 -
Alberto Costa Porto Aktiv 144 / 138 40% 7 26.03.2027 -
James Garner Everton Aktiv 152 / 145 40% 2 26.03.2027 -
Florentino Luís Ipswich Town Aktiv 137 / 151 40% 1 26.03.2027 -
Amadou Onana Aston Villa Aktiv 153 / 171 40% 4 25.03.2027 -
Tino Livramento Newcastle United Aktiv 157 / 156 40% 4 25.03.2027 -
Salvador Blopá Sporting CP Aktiv 117 / 115 40% 1 25.03.2027 -
Georginio Rutter Brighton Aktiv 150 / 150 40% 2 23.03.2027 -
Nico Paz Como Aktiv 155 / 165 40% 6 23.03.2027 -
Cesar Corona Veracruz Aktiv 139 / 144 40% 6 23.03.2027 -
Jonathan David Juventus Aktiv 155 / 157 40% 5 22.03.2027 -
Saša Lukić Ipswich Town Aktiv 138 / 151 40% 2 22.03.2027 -
Viktor Gyökeres Arsenal Aktiv 154 / 156 40% 1 22.03.2027 -
Khéphren Thuram Juventus Aktiv 154 / 161 40% 1 22.03.2027 -
Iván Fresneda Sporting CP Aktiv 136 / 140 40% 9 21.03.2027 -
Brandon Aguilera Rio Ave Aktiv 121 / 107 40% 1 21.03.2027 -
Levi Colwill Chelsea Aktiv 159 / 154 40% 5 19.03.2027 -
Moise Kean Fiorentina Aktiv 155 / 146 40% 5 19.03.2027 -
Evanilson Bournemouth Aktiv 154 / 146 40% 4 19.03.2027 -
Finn van Breemen Famalicao Aktiv 118 / 131 40% 1 19.03.2027 -
Giacomo Raspadori Atalanta Aktiv 153 / 154 40% 5 17.03.2027 -
Pau Víctor Braga Aktiv 139 / 138 40% 8 17.03.2027 -
Jarrod Bowen West Ham United Aktiv 158 / 160 40% 2 17.03.2027 -
Marcel Ruiz Toluca Aktiv 146 / 148 40% 6 16.03.2027 -
Reiss Nelson AC Milan Aktiv 143 / 140 40% 2 16.03.2027 -
Vangelis Pavlidis Benfica Aktiv 155 / 156 40% 6 16.03.2027 -
Makan Aïko Tondela Aktiv 120 / 124 40% 2 16.03.2027 -
Lautaro Martínez Inter Aktiv 169 / 158 40% 5 14.03.2027 -
Jean-Philippe Mateta Crystal Palace Aktiv 154 / 160 40% 3 12.03.2027 -
Largie Ramazani Leeds United Aktiv 143 / 131 40% 3 11.03.2027 -
Maximiliano Araújo Sporting CP Aktiv 154 / 146 40% 13 09.03.2027 -
Geny Sporting CP Aktiv 149 / 147 40% 6 09.03.2027 -
Mason Greenwood Fenerbahce Aktiv 159 / 157 40% 2 09.03.2027 -
Jason Januzaj Mouscron Aktiv 147 / 158 40% 4 09.03.2027 -
Leonardo Lelo Braga Aktiv 136 / 122 40% 2 09.03.2027 -
Borja Sainz Porto Aktiv 147 / 154 40% 5 05.03.2027 -
Heorhii Sudakov Benfica Aktiv 152 / 132 40% 7 05.03.2027 -
Julio Enciso Ipswich Town Aktiv 143 / 153 40% 3 05.03.2027 -
Igor Jesus Nottingham Forest Aktiv 144 / 157 40% 3 05.03.2027 -
João Pedro Chelsea Aktiv 150 / 152 40% 2 03.03.2027 -
Dušan Vlahović Juventus Aktiv 161 / 155 40% 1 03.03.2027 -
Loïs Openda Juventus Aktiv 149 / 157 40% 1 02.03.2027 -
Donyell Malen AS Roma Aktiv 150 / 133 40% 3 28.02.2027 -
Yanis Begraoui Estoril Praia Aktiv 133 / 125 40% 2 27.02.2027 -
Nordi Mukiele Sunderland Aktiv 151 / 128 40% 3 27.02.2027 -
Adrien Truffert Bournemouth Aktiv 154 / 161 40% 1 27.02.2027 -
Gabri Veiga Porto Aktiv 153 / 140 40% 4 24.02.2027 -
Mateo Retegui Al-Qadisiyah Aktiv 159 / 142 40% 10 22.02.2027 -
Nicolas Jackson Aston Villa Aktiv 147 / 144 40% 4 22.02.2027 -
Dodi Lukébakio Benfica Aktiv 151 / 150 40% 6 20.02.2027 -
Boubacar Kamara Aston Villa Aktiv 167 / 152 40% 2 19.02.2027 -
Alan Varela Porto Aktiv 143 / 149 40% 1 19.02.2027 -
Kenan Yıldız Juventus Aktiv 159 / 180 40% 1 16.02.2027 -
Vinícius Lopes Santa Clara Aktiv 118 / 117 40% 1 16.02.2027 -
Haissem Hassan Bloemfontein Celtic Aktiv 130 / 149 40% 1 16.02.2027 -
Musa Barrow Al-Khaleej Aktiv 133 / 140 40% 1 14.02.2027 -
Jean-Luc Morin Tours Aktiv 141 / 127 40% 3 13.02.2027 -
Soufiane Rahimi Al Ain Aktiv 139 / 149 40% 2 12.02.2027 -
Maxence Lacroix Chelsea Aktiv 153 / 142 40% 2 10.02.2027 -
Alexis Mac Allister Liverpool Aktiv 160 / 173 40% 4 10.02.2027 -
Matthijs de Ligt Manchester United Aktiv 157 / 156 40% 2 09.02.2027 -
Conor Gallagher Tottenham Aktiv 156 / 158 40% 1 09.02.2027 -
Martín Zubimendi Arsenal Aktiv 169 / 176 40% 1 06.02.2027 -
Robin Roefs Sunderland Aktiv 147 / 131 40% 3 03.02.2027 -
Cezary Miszta Rio Ave Aktiv 126 / 135 40% 1 03.02.2027 -
Gustaf Lagerbielke Braga Aktiv 142 / 121 40% 3 30.01.2027 -
Grégoire Coudert Burnley Aktiv 128 / 124 40% 2 30.01.2027 -
Sam Tickle Wigan Athletic Aktiv 133 / 128 40% 1 30.01.2027 -
Mads Hermansen West Ham United Aktiv 135 / 122 40% 1 30.01.2027 -
Lorenzo Palmisani Frosinone Aktiv 122 / 122 40% 1 29.01.2027 -
Radek Vítek Middlesbrough Aktiv 136 / 131 40% 1 29.01.2027 -
Yehvann Diouf OGC Nice Aktiv 144 / 141 40% 1 29.01.2027 -
Lucas Chevalier Paris Saint-Germain Aktiv 161 / 166 40% 1 28.01.2027 -
Axel Alderweireld KV Oostende Aktiv 138 / 152 40% 1 28.01.2027 -
Federico Pereira Toluca Aktiv 138 / 141 40% 1 26.01.2027 -
Elia Caprile Cagliari Aktiv 139 / 154 40% 1 26.01.2027 -
Diogo Costa Paris Saint-Germain Aktiv 160 / 168 40% 1 26.01.2027 -
Bernardo Fontes Braga Aktiv 135 / 139 40% 1 26.01.2027 -
Anthony Patterson Wrexham Aktiv 130 / 145 40% 3 24.01.2027 -
Robin Risser RC Lens Aktiv 139 / 132 40% 1 24.01.2027 -
Marco Carnesecchi Atalanta Aktiv 152 / 154 40% 1 24.01.2027 -
Pedro Porro Tottenham Aktiv 152 / 145 40% 3 21.01.2027 -
Mile Svilar AS Roma Aktiv 161 / 155 40% 2 21.01.2027 -
Vitinho Botafogo Aktiv 135 / 140 40% 3 21.01.2027 -
Kostantis Tzolakis Hull City Aktiv 142 / 133 40% 2 21.01.2027 -
Hwang In-Beom Porto Aktiv 145 / 133 40% 4 20.01.2027 -
Zeno Debast Sporting CP Aktiv 137 / 147 40% 2 20.01.2027 -
Richard Ríos Benfica Aktiv 145 / 127 40% 3 18.01.2027 -
Joško Gvardiol Manchester City Aktiv 160 / 163 40% 1 18.01.2027 -
Tyler Adams Bournemouth Aktiv 155 / 161 40% 2 16.01.2027 -
Noussair Mazraoui Manchester United Aktiv 153 / 166 40% 1 16.01.2027 -
Óscar Mingueza Crystal Palace Aktiv 152 / 152 40% 1 16.01.2027 -
Gonçalo Inácio Sporting CP Aktiv 148 / 145 40% 2 14.01.2027 -
Enzo Barrenechea Benfica Aktiv 154 / 152 40% 7 13.01.2027 -
Olivier Boscagli Brighton Aktiv 145 / 149 40% 2 10.01.2027 -
Lazar Carević Famalicao Aktiv 134 / 126 40% 1 10.01.2027 -
Carl Rushworth Coventry City Aktiv 139 / 139 40% 1 10.01.2027 -
Jan Bednarek Porto Aktiv 140 / 140 40% 1 08.01.2027 -
Gianluigi Donnarumma Manchester City Aktiv 170 / 163 40% 1 08.01.2027 -
Senne Lammens Manchester United Aktiv 146 / 134 40% 1 07.01.2027 -
Hugo Souza Corinthians Aktiv 137 / 137 40% 1 07.01.2027 -
Cesar Corona Veracruz Verloren 142 / 139 40% 3 21.12.2026 -
Ferreirinha Sport Recife Aktiv 132 / 134 79% 1 21.12.2026 Befürworten
Jason Januzaj Mouscron Verloren 140 / 159 40% 1 14.12.2026 -
Bernardo Fontes Braga Verloren 124 / 132 40% 1 07.12.2026 -
Cezary Miszta Rio Ave Verloren 134 / 128 40% 1 07.12.2026 -
Memphis Depay Corinthians Aktiv 142 / 135 79% 1 02.12.2026 Befürworten
Paulinho Palmeiras Aktiv 140 / 140 66% 1 01.12.2026 Befürworten
Borja Mayoral Getafe Aktiv 140 / 141 40% 2 28.11.2026 -
Federico Chiesa Liverpool Aktiv 153 / 167 40% 1 28.11.2026 -
Guille Rosas Gijón Aktiv 138 / 125 40% 1 27.11.2026 -
Pepê Porto Aktiv 145 / 158 40% 9 24.11.2026 -
Harry Wilson Leeds United Aktiv 137 / 142 40% 1 24.11.2026 -
Charles De Ketelaere Atalanta Aktiv 152 / 145 40% 3 23.11.2026 -
Loum Tchaouna Coventry City Aktiv 146 / 123 40% 5 23.11.2026 -
Kevin Schade Brentford Aktiv 144 / 153 40% 2 23.11.2026 -
Ez Abde Betis Aktiv 156 / 141 40% 1 23.11.2026 -
Rodrigo Zalazar Sporting CP Aktiv 145 / 148 40% 4 20.11.2026 -
Pote Sporting CP Aktiv 150 / 152 40% 4 20.11.2026 -
Kang-In Lee Atlético Madrid Aktiv 154 / 152 40% 1 18.11.2026 -
Moussa Diaby Al-Ittihad Aktiv 147 / 131 40% 1 18.11.2026 -
Alan Varela Porto Verloren 147 / 138 40% 11 17.11.2026 -
Yuri Alberto Corinthians Verloren 140 / 144 40% 10 17.11.2026 -
Yeremay Deportivo La Coruña Aktiv 149 / 135 40% 6 17.11.2026 -
Gérson Cruzeiro Aktiv 139 / 146 40% 3 16.11.2026 -
Emile Smith Rowe Fulham Aktiv 154 / 144 40% 1 15.11.2026 -
Javi Puado Espanyol Aktiv 152 / 131 40% 1 15.11.2026 -
Dominic Solanke Tottenham Aktiv 149 / 159 40% 1 15.11.2026 -
João Costa Santa Clara Aktiv 109 / 126 40% 1 14.11.2026 -
Camilo Durán Bloemfontein Celtic Aktiv 114 / 118 40% 1 14.11.2026 -
José Paradela Cruz Azul Aktiv 143 / 132 40% 2 11.11.2026 -
Georges Mikautadze Villarreal Aktiv 149 / 147 40% 1 11.11.2026 -
Frenkie de Jong Barcelona Aktiv 174 / 171 40% 3 10.11.2026 -
Barış Alper Yılmaz Galatasaray Aktiv 145 / 147 40% 3 09.11.2026 -
George Hirst Stoke City Aktiv 141 / 130 40% 1 09.11.2026 -
José Manuel López Palmeiras Aktiv 132 / 123 40% 1 09.11.2026 -
Alex Scott Bournemouth Aktiv 145 / 133 40% 1 07.11.2026 -
Omar El Hilali Espanyol Aktiv 152 / 139 40% 1 07.11.2026 -
Bruno Guimarães Arsenal Aktiv 168 / 173 40% 1 07.11.2026 -
Liam Delap Nottingham Forest Aktiv 140 / 151 40% 1 05.11.2026 -
James Maddison Tottenham Aktiv 162 / 161 40% 2 04.11.2026 -
Victor Froholdt Porto Aktiv 148 / 145 40% 7 02.11.2026 -
Pape Guèye Villarreal Aktiv 151 / 141 40% 2 31.10.2026 -
Gonzalo Fulham Aktiv 148 / 150 40% 3 30.10.2026 -
Thiago Almada River Plate Aktiv 148 / 143 40% 7 26.10.2026 -
Jacob Ramsey Newcastle United Aktiv 144 / 157 40% 1 26.10.2026 -
Brais Méndez Columbus Crew Aktiv 152 / 144 40% 8 25.10.2026 -
Abel Bretones Osasuna Aktiv 134 / 125 40% 1 25.10.2026 -
Luiz Henrique Zenit Aktiv 139 / 132 40% 1 22.10.2026 -
Steven Bergwijn Al-Ittihad Aktiv 153 / 146 40% 4 17.10.2026 -
José Ángel Carmona Sevilla Aktiv 145 / 134 40% 1 14.10.2026 -
Antonee Robinson Fulham Aktiv 158 / 157 40% 1 12.10.2026 -
Tomás Araújo Benfica Aktiv 148 / 141 40% 1 12.10.2026 -
Lukáš Provod Slavia Prague Aktiv 154 / 155 40% 4 10.10.2026 -
Arnaut Danjuma Valencia Aktiv 140 / 155 40% 1 10.10.2026 -
William Gomes Porto Aktiv 131 / 161 40% 3 09.10.2026 -
Roberto Fernández Braga Aktiv 132 / 135 40% 2 08.10.2026 -
Leandro Barreiro Benfica Aktiv 133 / 131 40% 4 06.10.2026 -
Igor Paixão Olympique de Marseille Aktiv 152 / 156 40% 2 04.10.2026 -
Mahmoud Al Bloushi Al Shabab Aktiv 154 / 139 40% 1 04.10.2026 -
Alfonso Trezza Arouca Aktiv 123 / 108 40% 1 03.10.2026 -
Korede Osundina Casa Pia Aktiv 111 / 114 40% 1 03.10.2026 -
Allan Saint-Maximin Charlotte Football Club Aktiv 145 / 140 40% 3 28.09.2026 -
Santiago Giménez AC Milan Aktiv 139 / 155 40% 1 27.09.2026 -
Benjamin Šeško Manchester United Aktiv 154 / 167 40% 1 27.09.2026 -
Ismaël Bennacer Palmeiras Aktiv 149 / 146 40% 4 26.09.2026 -
Gianluca Scamacca Atalanta Aktiv 154 / 131 40% 3 25.09.2026 -
Brennan Johnson Everton Aktiv 145 / 125 40% 1 25.09.2026 -
Gianluca Prestianni Benfica Aktiv 130 / 121 40% 4 18.09.2026 -
Luis Sinisterra Cruzeiro Aktiv 134 / 143 40% 2 18.09.2026 -
Julián Quiñones Al-Qadisiyah Aktiv 144 / 158 40% 2 16.09.2026 -
Rasmus Højlund Napoli Aktiv 154 / 137 40% 1 16.09.2026 -
Jhon Arias Palmeiras Aktiv 137 / 140 40% 1 16.09.2026 -
Carlos Vicente Birmingham Aktiv 133 / 133 40% 2 10.09.2026 -
Marcos Antonio Sport Recife Aktiv 134 / 126 40% 1 09.09.2026 -
Iván Martín Racing Club Aktiv 140 / 152 40% 2 02.09.2026 -
Breno Bidon Corinthians Aktiv 128 / 145 40% 1 01.09.2026 -
Mathias De Amorim Famalicao Aktiv 133 / 129 40% 2 21.08.2026 -
Yoan Bonny Inter Aktiv 140 / 151 40% 1 20.08.2026 -
Alexey Batrakov Galatasaray Aktiv 140 / 159 40% 1 20.08.2026 -
Emiliano Buendía Aston Villa Aktiv 137 / 130 40% 1 14.08.2026 -
Diego Gómez Brighton Aktiv 135 / 154 40% 1 13.08.2026 -
Martim Fernandes Porto Aktiv 126 / 124 40% 1 10.08.2026 -
Diego Rodrigues Braga Aktiv 120 / 133 40% 1 10.08.2026 -
Yangel Herrera Real Sociedad Aktiv 149 / 156 40% 1 07.08.2026 -
Luís Guilherme Sporting CP Aktiv 119 / 139 40% 1 06.08.2026 -
Vitor Roque Palmeiras Aktiv 137 / 155 40% 2 05.08.2026 -
Jorge De Frutos Rayo Vallecano Aktiv 141 / 137 40% 2 04.08.2026 -
Jones El-Abdellaoui Celta Aktiv 126 / 116 40% 1 04.08.2026 -
Demir Ege Tıknaz Braga Aktiv 125 / 134 40% 1 02.08.2026 -
Kaoru Mitoma Brighton Aktiv 164 / 148 40% 1 02.08.2026 -
Christian Pulisic AC Milan Aktiv 166 / 146 40% 1 02.08.2026 -